sensor_id;sensor_type;location;lat;lon;timestamp;P1;durP1;ratioP1;P2;durP2;ratioP2
40637;SDS011;26336;44.696;10.622;2022-08-07T00:02:21;3.40;;;2.03;;
40637;SDS011;26336;44.696;10.622;2022-08-07T00:05:25;4.03;;;2.35;;
40637;SDS011;26336;44.696;10.622;2022-08-07T00:08:30;2.65;;;2.42;;
40637;SDS011;26336;44.696;10.622;2022-08-07T00:11:34;3.35;;;2.70;;
40637;SDS011;26336;44.696;10.622;2022-08-07T00:14:38;2.60;;;2.40;;
40637;SDS011;26336;44.696;10.622;2022-08-07T00:17:42;3.38;;;3.05;;
40637;SDS011;26336;44.696;10.622;2022-08-07T00:20:46;4.70;;;2.90;;
40637;SDS011;26336;44.696;10.622;2022-08-07T00:23:53;2.78;;;2.50;;
40637;SDS011;26336;44.696;10.622;2022-08-07T00:26:57;3.50;;;2.70;;
40637;SDS011;26336;44.696;10.622;2022-08-07T00:30:02;3.13;;;2.78;;
40637;SDS011;26336;44.696;10.622;2022-08-07T00:33:07;3.25;;;2.47;;
40637;SDS011;26336;44.696;10.622;2022-08-07T00:36:11;4.60;;;2.72;;
40637;SDS011;26336;44.696;10.622;2022-08-07T00:39:15;3.55;;;2.45;;
40637;SDS011;26336;44.696;10.622;2022-08-07T00:42:19;3.38;;;3.08;;
40637;SDS011;26336;44.696;10.622;2022-08-07T00:45:23;5.53;;;3.90;;
40637;SDS011;26336;44.696;10.622;2022-08-07T00:48:28;5.90;;;3.42;;
40637;SDS011;26336;44.696;10.622;2022-08-07T00:51:32;5.20;;;3.30;;
40637;SDS011;26336;44.696;10.622;2022-08-07T00:54:37;5.45;;;3.90;;
40637;SDS011;26336;44.696;10.622;2022-08-07T00:57:41;5.82;;;3.70;;
40637;SDS011;26336;44.696;10.622;2022-08-07T01:00:46;3.90;;;2.55;;
40637;SDS011;26336;44.696;10.622;2022-08-07T01:03:50;4.10;;;3.33;;
40637;SDS011;26336;44.696;10.622;2022-08-07T01:06:54;5.88;;;2.78;;
40637;SDS011;26336;44.696;10.622;2022-08-07T01:09:58;6.60;;;3.17;;
40637;SDS011;26336;44.696;10.622;2022-08-07T01:13:02;4.00;;;3.60;;
40637;SDS011;26336;44.696;10.622;2022-08-07T01:16:07;5.53;;;3.50;;
40637;SDS011;26336;44.696;10.622;2022-08-07T01:19:12;3.90;;;3.10;;
40637;SDS011;26336;44.696;10.622;2022-08-07T01:22:17;2.70;;;2.38;;
40637;SDS011;26336;44.696;10.622;2022-08-07T01:25:21;4.18;;;2.55;;
40637;SDS011;26336;44.696;10.622;2022-08-07T01:28:26;4.45;;;2.92;;
40637;SDS011;26336;44.696;10.622;2022-08-07T01:31:32;3.67;;;3.08;;
40637;SDS011;26336;44.696;10.622;2022-08-07T01:34:38;5.20;;;2.90;;
40637;SDS011;26336;44.696;10.622;2022-08-07T01:37:47;3.42;;;2.70;;
40637;SDS011;26336;44.696;10.622;2022-08-07T01:40:59;2.72;;;2.30;;
40637;SDS011;26336;44.696;10.622;2022-08-07T01:44:06;3.95;;;2.75;;
40637;SDS011;26336;44.696;10.622;2022-08-07T01:47:12;8.05;;;2.88;;
40637;SDS011;26336;44.696;10.622;2022-08-07T01:50:17;3.67;;;2.78;;
40637;SDS011;26336;44.696;10.622;2022-08-07T01:53:22;2.67;;;2.15;;
40637;SDS011;26336;44.696;10.622;2022-08-07T02:00:05;7.40;;;3.88;;
40637;SDS011;26336;44.696;10.622;2022-08-07T02:03:20;3.05;;;2.58;;
40637;SDS011;26336;44.696;10.622;2022-08-07T02:06:28;4.57;;;2.10;;
40637;SDS011;26336;44.696;10.622;2022-08-07T02:09:36;4.68;;;2.45;;
40637;SDS011;26336;44.696;10.622;2022-08-07T02:12:44;3.85;;;2.67;;
40637;SDS011;26336;44.696;10.622;2022-08-07T02:15:56;2.33;;;1.95;;
40637;SDS011;26336;44.696;10.622;2022-08-07T02:19:03;2.40;;;2.20;;
40637;SDS011;26336;44.696;10.622;2022-08-07T02:22:11;2.33;;;2.00;;
40637;SDS011;26336;44.696;10.622;2022-08-07T02:25:16;1.63;;;1.52;;
40637;SDS011;26336;44.696;10.622;2022-08-07T02:28:32;2.00;;;1.80;;
40637;SDS011;26336;44.696;10.622;2022-08-07T02:31:41;2.22;;;2.00;;
40637;SDS011;26336;44.696;10.622;2022-08-07T02:34:46;2.63;;;2.22;;
40637;SDS011;26336;44.696;10.622;2022-08-07T02:37:52;3.65;;;1.80;;
40637;SDS011;26336;44.696;10.622;2022-08-07T02:40:59;1.80;;;1.67;;
40637;SDS011;26336;44.696;10.622;2022-08-07T02:44:05;1.90;;;1.65;;
40637;SDS011;26336;44.696;10.622;2022-08-07T02:47:09;2.30;;;1.92;;
40637;SDS011;26336;44.696;10.622;2022-08-07T02:50:15;2.65;;;1.90;;
40637;SDS011;26336;44.696;10.622;2022-08-07T02:53:22;2.78;;;1.95;;
40637;SDS011;26336;44.696;10.622;2022-08-07T02:56:31;1.92;;;1.83;;
40637;SDS011;26336;44.696;10.622;2022-08-07T02:59:36;2.28;;;1.80;;
40637;SDS011;26336;44.696;10.622;2022-08-07T03:02:46;3.30;;;2.67;;
40637;SDS011;26336;44.696;10.622;2022-08-07T03:05:53;2.15;;;1.75;;
40637;SDS011;26336;44.696;10.622;2022-08-07T03:09:05;3.15;;;2.05;;
40637;SDS011;26336;44.696;10.622;2022-08-07T03:12:10;2.38;;;1.90;;
40637;SDS011;26336;44.696;10.622;2022-08-07T03:15:15;2.55;;;1.70;;
40637;SDS011;26336;44.696;10.622;2022-08-07T03:18:21;1.90;;;1.63;;
40637;SDS011;26336;44.696;10.622;2022-08-07T03:21:26;2.97;;;1.83;;
40637;SDS011;26336;44.696;10.622;2022-08-07T03:24:31;2.67;;;1.80;;
40637;SDS011;26336;44.696;10.622;2022-08-07T03:27:39;2.08;;;1.50;;
40637;SDS011;26336;44.696;10.622;2022-08-07T03:30:46;1.98;;;1.80;;
40637;SDS011;26336;44.696;10.622;2022-08-07T03:33:54;2.65;;;2.08;;
40637;SDS011;26336;44.696;10.622;2022-08-07T03:37:00;2.63;;;2.13;;
40637;SDS011;26336;44.696;10.622;2022-08-07T03:40:06;2.38;;;1.98;;
40637;SDS011;26336;44.696;10.622;2022-08-07T03:43:13;4.50;;;1.92;;
40637;SDS011;26336;44.696;10.622;2022-08-07T03:46:19;2.03;;;1.90;;
40637;SDS011;26336;44.696;10.622;2022-08-07T03:49:26;3.03;;;2.20;;
40637;SDS011;26336;44.696;10.622;2022-08-07T03:52:31;2.28;;;2.08;;
40637;SDS011;26336;44.696;10.622;2022-08-07T03:55:39;2.30;;;2.10;;
40637;SDS011;26336;44.696;10.622;2022-08-07T03:58:44;1.98;;;1.88;;
40637;SDS011;26336;44.696;10.622;2022-08-07T04:01:49;1.92;;;1.83;;
40637;SDS011;26336;44.696;10.622;2022-08-07T04:04:59;2.92;;;2.05;;
40637;SDS011;26336;44.696;10.622;2022-08-07T04:08:03;2.30;;;2.10;;
40637;SDS011;26336;44.696;10.622;2022-08-07T04:11:09;2.15;;;1.95;;
40637;SDS011;26336;44.696;10.622;2022-08-07T04:14:15;2.17;;;1.90;;
40637;SDS011;26336;44.696;10.622;2022-08-07T04:17:20;2.42;;;2.20;;
40637;SDS011;26336;44.696;10.622;2022-08-07T04:20:25;2.95;;;2.20;;
40637;SDS011;26336;44.696;10.622;2022-08-07T04:23:29;2.33;;;2.13;;
40637;SDS011;26336;44.696;10.622;2022-08-07T04:26:37;2.30;;;2.10;;
40637;SDS011;26336;44.696;10.622;2022-08-07T04:29:42;3.95;;;2.20;;
40637;SDS011;26336;44.696;10.622;2022-08-07T04:32:47;1.92;;;1.75;;
40637;SDS011;26336;44.696;10.622;2022-08-07T04:35:54;2.67;;;2.25;;
40637;SDS011;26336;44.696;10.622;2022-08-07T04:39:03;2.10;;;1.90;;
40637;SDS011;26336;44.696;10.622;2022-08-07T04:42:08;2.42;;;2.22;;
40637;SDS011;26336;44.696;10.622;2022-08-07T04:45:13;2.33;;;2.13;;
40637;SDS011;26336;44.696;10.622;2022-08-07T04:52:15;3.25;;;2.35;;
40637;SDS011;26336;44.696;10.622;2022-08-07T05:06:14;3.08;;;2.78;;
40637;SDS011;26336;44.696;10.622;2022-08-07T05:10:05;5.00;;;3.60;;
40637;SDS011;26336;44.696;10.622;2022-08-07T05:13:24;6.47;;;3.63;;
40637;SDS011;26336;44.696;10.622;2022-08-07T05:16:33;5.75;;;3.80;;
40637;SDS011;26336;44.696;10.622;2022-08-07T05:19:40;4.93;;;3.72;;
40637;SDS011;26336;44.696;10.622;2022-08-07T05:22:48;4.70;;;3.42;;
40637;SDS011;26336;44.696;10.622;2022-08-07T05:25:55;6.05;;;3.33;;
40637;SDS011;26336;44.696;10.622;2022-08-07T05:29:02;5.40;;;3.67;;
40637;SDS011;26336;44.696;10.622;2022-08-07T05:32:07;4.80;;;3.42;;
40637;SDS011;26336;44.696;10.622;2022-08-07T05:35:11;8.95;;;2.85;;
40637;SDS011;26336;44.696;10.622;2022-08-07T05:38:17;4.93;;;3.20;;
40637;SDS011;26336;44.696;10.622;2022-08-07T05:41:24;3.10;;;2.80;;
40637;SDS011;26336;44.696;10.622;2022-08-07T05:44:28;3.88;;;3.20;;
40637;SDS011;26336;44.696;10.622;2022-08-07T05:47:37;4.05;;;3.35;;
40637;SDS011;26336;44.696;10.622;2022-08-07T05:50:42;3.40;;;2.20;;
40637;SDS011;26336;44.696;10.622;2022-08-07T05:53:50;3.58;;;2.65;;
40637;SDS011;26336;44.696;10.622;2022-08-07T05:56:54;3.72;;;2.55;;
40637;SDS011;26336;44.696;10.622;2022-08-07T06:00:01;3.92;;;3.13;;
40637;SDS011;26336;44.696;10.622;2022-08-07T06:03:17;5.60;;;3.38;;
40637;SDS011;26336;44.696;10.622;2022-08-07T06:06:23;5.90;;;3.90;;
40637;SDS011;26336;44.696;10.622;2022-08-07T06:09:31;5.93;;;4.07;;
40637;SDS011;26336;44.696;10.622;2022-08-07T06:12:35;5.45;;;4.10;;
40637;SDS011;26336;44.696;10.622;2022-08-07T06:15:39;5.93;;;4.78;;
40637;SDS011;26336;44.696;10.622;2022-08-07T06:18:44;6.13;;;4.45;;
40637;SDS011;26336;44.696;10.622;2022-08-07T06:21:50;5.47;;;4.00;;
40637;SDS011;26336;44.696;10.622;2022-08-07T06:24:56;5.43;;;3.80;;
40637;SDS011;26336;44.696;10.622;2022-08-07T06:28:03;4.63;;;3.90;;
40637;SDS011;26336;44.696;10.622;2022-08-07T06:31:11;6.60;;;4.05;;
40637;SDS011;26336;44.696;10.622;2022-08-07T06:34:15;5.75;;;4.47;;
40637;SDS011;26336;44.696;10.622;2022-08-07T06:37:19;5.93;;;4.78;;
40637;SDS011;26336;44.696;10.622;2022-08-07T06:40:23;7.78;;;5.60;;
40637;SDS011;26336;44.696;10.622;2022-08-07T06:43:29;7.05;;;5.60;;
40637;SDS011;26336;44.696;10.622;2022-08-07T06:46:44;9.02;;;5.50;;
40637;SDS011;26336;44.696;10.622;2022-08-07T06:49:48;6.75;;;6.15;;
40637;SDS011;26336;44.696;10.622;2022-08-07T06:52:54;7.13;;;5.97;;
40637;SDS011;26336;44.696;10.622;2022-08-07T06:56:06;6.78;;;5.93;;
40637;SDS011;26336;44.696;10.622;2022-08-07T06:59:17;8.15;;;6.25;;
40637;SDS011;26336;44.696;10.622;2022-08-07T07:02:28;6.25;;;5.65;;
40637;SDS011;26336;44.696;10.622;2022-08-07T07:05:34;9.75;;;6.00;;
40637;SDS011;26336;44.696;10.622;2022-08-07T07:08:39;6.68;;;5.55;;
40637;SDS011;26336;44.696;10.622;2022-08-07T07:11:45;10.60;;;6.25;;
40637;SDS011;26336;44.696;10.622;2022-08-07T07:18:14;8.98;;;5.68;;
40637;SDS011;26336;44.696;10.622;2022-08-07T07:21:37;5.03;;;4.53;;
40637;SDS011;26336;44.696;10.622;2022-08-07T07:24:43;4.80;;;4.18;;
40637;SDS011;26336;44.696;10.622;2022-08-07T07:27:50;8.25;;;6.25;;
40637;SDS011;26336;44.696;10.622;2022-08-07T07:30:59;6.30;;;5.32;;
40637;SDS011;26336;44.696;10.622;2022-08-07T07:34:07;6.57;;;5.63;;
40637;SDS011;26336;44.696;10.622;2022-08-07T07:37:14;8.65;;;5.72;;
40637;SDS011;26336;44.696;10.622;2022-08-07T07:40:20;5.43;;;4.93;;
40637;SDS011;26336;44.696;10.622;2022-08-07T07:43:26;5.75;;;5.07;;
40637;SDS011;26336;44.696;10.622;2022-08-07T07:46:33;5.10;;;4.60;;
40637;SDS011;26336;44.696;10.622;2022-08-07T07:49:38;4.38;;;3.97;;
40637;SDS011;26336;44.696;10.622;2022-08-07T07:52:44;7.28;;;5.50;;
40637;SDS011;26336;44.696;10.622;2022-08-07T07:55:52;5.00;;;4.53;;
40637;SDS011;26336;44.696;10.622;2022-08-07T07:59:01;5.75;;;4.60;;
40637;SDS011;26336;44.696;10.622;2022-08-07T08:02:06;6.80;;;5.05;;
40637;SDS011;26336;44.696;10.622;2022-08-07T08:05:12;6.05;;;5.47;;
40637;SDS011;26336;44.696;10.622;2022-08-07T08:08:19;8.13;;;5.53;;
40637;SDS011;26336;44.696;10.622;2022-08-07T08:11:25;5.32;;;4.53;;
40637;SDS011;26336;44.696;10.622;2022-08-07T08:25:10;6.53;;;5.57;;
40637;SDS011;26336;44.696;10.622;2022-08-07T08:28:34;5.05;;;4.35;;
40637;SDS011;26336;44.696;10.622;2022-08-07T08:31:46;5.60;;;5.00;;
40637;SDS011;26336;44.696;10.622;2022-08-07T08:34:52;5.88;;;5.35;;
40637;SDS011;26336;44.696;10.622;2022-08-07T08:37:59;5.13;;;4.63;;
40637;SDS011;26336;44.696;10.622;2022-08-07T08:41:20;5.85;;;5.25;;
40637;SDS011;26336;44.696;10.622;2022-08-07T08:44:52;6.25;;;5.22;;
40637;SDS011;26336;44.696;10.622;2022-08-07T08:51:24;6.05;;;5.45;;
40637;SDS011;26336;44.696;10.622;2022-08-07T08:54:44;6.30;;;5.55;;
40637;SDS011;26336;44.696;10.622;2022-08-07T09:04:21;7.18;;;6.57;;
40637;SDS011;26336;44.696;10.622;2022-08-07T09:07:47;7.90;;;6.68;;
40637;SDS011;26336;44.696;10.622;2022-08-07T09:11:16;6.47;;;5.80;;
40637;SDS011;26336;44.696;10.622;2022-08-07T09:28:08;8.00;;;7.20;;
40637;SDS011;26336;44.696;10.622;2022-08-07T09:31:29;8.60;;;7.50;;
40637;SDS011;26336;44.696;10.622;2022-08-07T09:34:48;7.72;;;7.05;;
40637;SDS011;26336;44.696;10.622;2022-08-07T09:38:08;9.38;;;7.40;;
40637;SDS011;26336;44.696;10.622;2022-08-07T09:41:29;7.68;;;7.00;;
40637;SDS011;26336;44.696;10.622;2022-08-07T09:54:34;6.85;;;6.15;;
40637;SDS011;26336;44.696;10.622;2022-08-07T10:01:39;7.72;;;6.03;;
40637;SDS011;26336;44.696;10.622;2022-08-07T10:08:41;8.47;;;5.73;;
40637;SDS011;26336;44.696;10.622;2022-08-07T10:11:54;5.72;;;4.90;;
40637;SDS011;26336;44.696;10.622;2022-08-07T10:32:12;6.20;;;5.70;;
40637;SDS011;26336;44.696;10.622;2022-08-07T10:46:05;5.88;;;4.72;;
40637;SDS011;26336;44.696;10.622;2022-08-07T10:49:23;7.18;;;6.50;;
40637;SDS011;26336;44.696;10.622;2022-08-07T10:52:42;6.30;;;5.63;;
40637;SDS011;26336;44.696;10.622;2022-08-07T10:56:03;6.22;;;5.55;;
40637;SDS011;26336;44.696;10.622;2022-08-07T11:06:03;4.97;;;4.57;;
40637;SDS011;26336;44.696;10.622;2022-08-07T11:09:45;5.75;;;4.22;;
40637;SDS011;26336;44.696;10.622;2022-08-07T11:13:03;4.93;;;4.25;;
40637;SDS011;26336;44.696;10.622;2022-08-07T11:16:30;4.53;;;4.13;;
40637;SDS011;26336;44.696;10.622;2022-08-07T11:19:49;4.22;;;3.70;;
40637;SDS011;26336;44.696;10.622;2022-08-07T11:23:06;4.43;;;4.13;;
40637;SDS011;26336;44.696;10.622;2022-08-07T11:26:44;4.50;;;4.10;;
40637;SDS011;26336;44.696;10.622;2022-08-07T11:29:55;5.40;;;4.03;;
40637;SDS011;26336;44.696;10.622;2022-08-07T11:43:41;5.32;;;3.80;;
40637;SDS011;26336;44.696;10.622;2022-08-07T11:47:16;3.42;;;3.13;;
40637;SDS011;26336;44.696;10.622;2022-08-07T11:54:32;3.90;;;3.60;;
40637;SDS011;26336;44.696;10.622;2022-08-07T12:07:36;3.30;;;3.00;;
40637;SDS011;26336;44.696;10.622;2022-08-07T12:14:16;3.20;;;3.00;;
40637;SDS011;26336;44.696;10.622;2022-08-07T12:17:23;3.40;;;3.10;;
40637;SDS011;26336;44.696;10.622;2022-08-07T12:20:35;3.50;;;3.20;;
40637;SDS011;26336;44.696;10.622;2022-08-07T12:23:53;3.67;;;3.38;;
40637;SDS011;26336;44.696;10.622;2022-08-07T12:30:14;4.30;;;3.90;;
40637;SDS011;26336;44.696;10.622;2022-08-07T12:33:22;3.90;;;3.60;;
40637;SDS011;26336;44.696;10.622;2022-08-07T12:36:28;4.05;;;3.75;;
40637;SDS011;26336;44.696;10.622;2022-08-07T12:39:34;3.60;;;3.30;;
40637;SDS011;26336;44.696;10.622;2022-08-07T12:42:38;3.03;;;2.75;;
40637;SDS011;26336;44.696;10.622;2022-08-07T12:52:37;3.10;;;2.90;;
40637;SDS011;26336;44.696;10.622;2022-08-07T12:59:06;2.70;;;2.50;;
40637;SDS011;26336;44.696;10.622;2022-08-07T13:25:25;2.50;;;2.30;;
40637;SDS011;26336;44.696;10.622;2022-08-07T13:28:43;2.72;;;1.98;;
40637;SDS011;26336;44.696;10.622;2022-08-07T13:32:03;2.55;;;2.35;;
40637;SDS011;26336;44.696;10.622;2022-08-07T13:38:46;2.38;;;2.17;;
40637;SDS011;26336;44.696;10.622;2022-08-07T13:41:58;2.53;;;2.33;;
40637;SDS011;26336;44.696;10.622;2022-08-07T13:45:04;3.67;;;2.20;;
40637;SDS011;26336;44.696;10.622;2022-08-07T13:48:11;2.80;;;2.53;;
40637;SDS011;26336;44.696;10.622;2022-08-07T13:51:16;2.55;;;2.35;;
40637;SDS011;26336;44.696;10.622;2022-08-07T13:54:26;2.60;;;2.40;;
40637;SDS011;26336;44.696;10.622;2022-08-07T13:57:33;2.70;;;2.33;;
40637;SDS011;26336;44.696;10.622;2022-08-07T14:00:40;2.40;;;2.20;;
40637;SDS011;26336;44.696;10.622;2022-08-07T14:03:44;2.60;;;2.40;;
40637;SDS011;26336;44.696;10.622;2022-08-07T14:06:50;2.75;;;2.53;;
40637;SDS011;26336;44.696;10.622;2022-08-07T14:09:57;2.30;;;2.10;;
40637;SDS011;26336;44.696;10.622;2022-08-07T14:13:02;3.85;;;2.25;;
40637;SDS011;26336;44.696;10.622;2022-08-07T14:16:10;2.40;;;2.20;;
40637;SDS011;26336;44.696;10.622;2022-08-07T14:19:35;2.20;;;1.95;;
40637;SDS011;26336;44.696;10.622;2022-08-07T14:22:47;2.30;;;2.10;;
40637;SDS011;26336;44.696;10.622;2022-08-07T14:26:11;2.00;;;1.90;;
40637;SDS011;26336;44.696;10.622;2022-08-07T14:29:22;2.15;;;1.95;;
40637;SDS011;26336;44.696;10.622;2022-08-07T14:32:38;2.13;;;1.92;;
40637;SDS011;26336;44.696;10.622;2022-08-07T14:35:54;2.05;;;1.85;;
40637;SDS011;26336;44.696;10.622;2022-08-07T14:39:00;2.28;;;1.90;;
40637;SDS011;26336;44.696;10.622;2022-08-07T14:42:10;2.80;;;2.28;;
40637;SDS011;26336;44.696;10.622;2022-08-07T14:45:15;2.20;;;2.10;;
40637;SDS011;26336;44.696;10.622;2022-08-07T14:48:21;2.45;;;2.25;;
40637;SDS011;26336;44.696;10.622;2022-08-07T14:51:29;2.85;;;1.80;;
40637;SDS011;26336;44.696;10.622;2022-08-07T14:54:39;2.20;;;2.00;;
40637;SDS011;26336;44.696;10.622;2022-08-07T14:57:45;2.33;;;2.13;;
40637;SDS011;26336;44.696;10.622;2022-08-07T15:00:52;2.38;;;2.17;;
40637;SDS011;26336;44.696;10.622;2022-08-07T15:03:58;2.33;;;2.13;;
40637;SDS011;26336;44.696;10.622;2022-08-07T15:07:04;2.42;;;2.13;;
40637;SDS011;26336;44.696;10.622;2022-08-07T15:10:15;2.67;;;2.30;;
40637;SDS011;26336;44.696;10.622;2022-08-07T15:13:24;2.20;;;2.05;;
40637;SDS011;26336;44.696;10.622;2022-08-07T15:16:36;1.92;;;1.83;;
40637;SDS011;26336;44.696;10.622;2022-08-07T15:19:52;2.35;;;2.22;;
40637;SDS011;26336;44.696;10.622;2022-08-07T15:23:02;2.58;;;2.38;;
40637;SDS011;26336;44.696;10.622;2022-08-07T15:26:14;2.10;;;1.98;;
40637;SDS011;26336;44.696;10.622;2022-08-07T15:29:24;2.80;;;2.60;;
40637;SDS011;26336;44.696;10.622;2022-08-07T15:32:46;1.85;;;1.75;;
40637;SDS011;26336;44.696;10.622;2022-08-07T15:35:52;2.20;;;2.03;;
40637;SDS011;26336;44.696;10.622;2022-08-07T15:39:07;2.63;;;2.28;;
40637;SDS011;26336;44.696;10.622;2022-08-07T15:45:58;2.42;;;2.22;;
40637;SDS011;26336;44.696;10.622;2022-08-07T15:49:18;3.03;;;2.30;;
40637;SDS011;26336;44.696;10.622;2022-08-07T15:52:28;2.63;;;2.40;;
40637;SDS011;26336;44.696;10.622;2022-08-07T15:55:33;2.42;;;2.22;;
40637;SDS011;26336;44.696;10.622;2022-08-07T16:01:50;2.72;;;2.53;;
40637;SDS011;26336;44.696;10.622;2022-08-07T16:04:57;2.75;;;2.47;;
40637;SDS011;26336;44.696;10.622;2022-08-07T16:08:09;2.85;;;2.63;;
40637;SDS011;26336;44.696;10.622;2022-08-07T16:18:18;2.63;;;2.28;;
40637;SDS011;26336;44.696;10.622;2022-08-07T16:21:37;3.10;;;2.88;;
40637;SDS011;26336;44.696;10.622;2022-08-07T16:24:56;2.33;;;2.13;;
40637;SDS011;26336;44.696;10.622;2022-08-07T16:28:19;2.30;;;2.05;;
40637;SDS011;26336;44.696;10.622;2022-08-07T16:34:56;2.30;;;2.10;;
40637;SDS011;26336;44.696;10.622;2022-08-07T16:48:24;2.60;;;2.40;;
40637;SDS011;26336;44.696;10.622;2022-08-07T16:55:21;3.15;;;2.40;;
40637;SDS011;26336;44.696;10.622;2022-08-07T16:59:01;2.55;;;2.35;;
40637;SDS011;26336;44.696;10.622;2022-08-07T17:09:00;2.55;;;2.35;;
40637;SDS011;26336;44.696;10.622;2022-08-07T17:16:15;2.17;;;2.00;;
40637;SDS011;26336;44.696;10.622;2022-08-07T17:22:55;2.47;;;2.28;;
40637;SDS011;26336;44.696;10.622;2022-08-07T17:33:23;2.22;;;2.05;;
40637;SDS011;26336;44.696;10.622;2022-08-07T17:36:31;3.08;;;2.38;;
40637;SDS011;26336;44.696;10.622;2022-08-07T17:39:45;2.65;;;2.45;;
40637;SDS011;26336;44.696;10.622;2022-08-07T17:43:08;2.97;;;2.65;;
40637;SDS011;26336;44.696;10.622;2022-08-07T17:46:21;2.42;;;2.17;;
40637;SDS011;26336;44.696;10.622;2022-08-07T17:49:49;2.70;;;2.50;;
40637;SDS011;26336;44.696;10.622;2022-08-07T17:53:11;3.55;;;2.40;;
40637;SDS011;26336;44.696;10.622;2022-08-07T17:56:36;2.75;;;2.55;;
40637;SDS011;26336;44.696;10.622;2022-08-07T17:59:53;2.72;;;2.53;;
40637;SDS011;26336;44.696;10.622;2022-08-07T18:03:12;2.83;;;2.63;;
40637;SDS011;26336;44.696;10.622;2022-08-07T18:06:30;2.53;;;2.33;;
40637;SDS011;26336;44.696;10.622;2022-08-07T18:09:41;2.97;;;2.67;;
40637;SDS011;26336;44.696;10.622;2022-08-07T18:16:15;2.50;;;2.30;;
40637;SDS011;26336;44.696;10.622;2022-08-07T18:22:54;2.53;;;2.33;;
40637;SDS011;26336;44.696;10.622;2022-08-07T18:26:06;3.00;;;2.70;;
40637;SDS011;26336;44.696;10.622;2022-08-07T18:29:18;2.60;;;2.40;;
40637;SDS011;26336;44.696;10.622;2022-08-07T18:49:57;3.35;;;3.05;;
40637;SDS011;26336;44.696;10.622;2022-08-07T19:02:43;2.70;;;2.50;;
40637;SDS011;26336;44.696;10.622;2022-08-07T19:06:10;2.85;;;2.65;;
40637;SDS011;26336;44.696;10.622;2022-08-07T19:09:25;3.25;;;3.05;;
40637;SDS011;26336;44.696;10.622;2022-08-07T19:12:56;3.60;;;3.30;;
40637;SDS011;26336;44.696;10.622;2022-08-07T19:23:08;3.22;;;3.03;;
40637;SDS011;26336;44.696;10.622;2022-08-07T19:26:25;3.28;;;3.03;;
40637;SDS011;26336;44.696;10.622;2022-08-07T19:29:40;3.22;;;2.92;;
40637;SDS011;26336;44.696;10.622;2022-08-07T19:32:48;3.00;;;2.80;;
40637;SDS011;26336;44.696;10.622;2022-08-07T19:35:56;3.00;;;2.80;;
40637;SDS011;26336;44.696;10.622;2022-08-07T19:39:01;3.35;;;3.05;;
40637;SDS011;26336;44.696;10.622;2022-08-07T19:42:09;3.28;;;2.97;;
40637;SDS011;26336;44.696;10.622;2022-08-07T19:45:16;3.38;;;3.08;;
40637;SDS011;26336;44.696;10.622;2022-08-07T19:48:31;3.08;;;2.75;;
40637;SDS011;26336;44.696;10.622;2022-08-07T19:51:40;3.13;;;2.83;;
40637;SDS011;26336;44.696;10.622;2022-08-07T19:54:46;2.78;;;2.53;;
40637;SDS011;26336;44.696;10.622;2022-08-07T19:57:53;3.15;;;2.72;;
40637;SDS011;26336;44.696;10.622;2022-08-07T20:01:01;2.83;;;2.53;;
40637;SDS011;26336;44.696;10.622;2022-08-07T20:04:05;2.92;;;2.60;;
40637;SDS011;26336;44.696;10.622;2022-08-07T20:07:10;2.90;;;2.70;;
40637;SDS011;26336;44.696;10.622;2022-08-07T20:10:19;3.45;;;2.85;;
40637;SDS011;26336;44.696;10.622;2022-08-07T20:13:32;2.45;;;2.25;;
40637;SDS011;26336;44.696;10.622;2022-08-07T20:16:40;3.05;;;2.33;;
40637;SDS011;26336;44.696;10.622;2022-08-07T20:19:50;3.78;;;2.80;;
40637;SDS011;26336;44.696;10.622;2022-08-07T20:22:55;3.80;;;2.83;;
40637;SDS011;26336;44.696;10.622;2022-08-07T20:26:05;2.70;;;2.50;;
40637;SDS011;26336;44.696;10.622;2022-08-07T20:29:10;3.15;;;2.75;;
40637;SDS011;26336;44.696;10.622;2022-08-07T20:32:17;3.40;;;3.10;;
40637;SDS011;26336;44.696;10.622;2022-08-07T20:35:27;6.15;;;2.70;;
40637;SDS011;26336;44.696;10.622;2022-08-07T20:38:37;2.70;;;2.50;;
40637;SDS011;26336;44.696;10.622;2022-08-07T20:41:44;3.38;;;2.70;;
40637;SDS011;26336;44.696;10.622;2022-08-07T20:44:51;2.55;;;2.35;;
40637;SDS011;26336;44.696;10.622;2022-08-07T20:47:56;3.05;;;2.63;;
40637;SDS011;26336;44.696;10.622;2022-08-07T20:51:02;2.90;;;2.47;;
40637;SDS011;26336;44.696;10.622;2022-08-07T20:54:07;3.03;;;2.67;;
40637;SDS011;26336;44.696;10.622;2022-08-07T20:57:15;3.47;;;3.20;;
40637;SDS011;26336;44.696;10.622;2022-08-07T21:00:23;5.03;;;3.20;;
40637;SDS011;26336;44.696;10.622;2022-08-07T21:03:51;2.85;;;2.65;;
40637;SDS011;26336;44.696;10.622;2022-08-07T21:06:59;4.13;;;3.15;;
40637;SDS011;26336;44.696;10.622;2022-08-07T21:10:05;4.07;;;3.08;;
40637;SDS011;26336;44.696;10.622;2022-08-07T21:13:16;3.20;;;2.92;;
40637;SDS011;26336;44.696;10.622;2022-08-07T21:16:29;3.15;;;2.85;;
40637;SDS011;26336;44.696;10.622;2022-08-07T21:19:39;3.25;;;2.95;;
40637;SDS011;26336;44.696;10.622;2022-08-07T21:22:48;3.60;;;3.17;;
40637;SDS011;26336;44.696;10.622;2022-08-07T21:29:29;3.40;;;2.95;;
40637;SDS011;26336;44.696;10.622;2022-08-07T21:32:44;3.40;;;3.10;;
40637;SDS011;26336;44.696;10.622;2022-08-07T21:35:58;4.13;;;3.05;;
40637;SDS011;26336;44.696;10.622;2022-08-07T21:49:55;3.20;;;2.80;;
40637;SDS011;26336;44.696;10.622;2022-08-07T21:59:31;3.45;;;2.60;;
40637;SDS011;26336;44.696;10.622;2022-08-07T22:06:20;3.25;;;2.95;;
40637;SDS011;26336;44.696;10.622;2022-08-07T22:09:30;3.17;;;2.88;;
40637;SDS011;26336;44.696;10.622;2022-08-07T22:15:52;3.50;;;3.15;;
40637;SDS011;26336;44.696;10.622;2022-08-07T22:19:18;4.13;;;3.78;;
40637;SDS011;26336;44.696;10.622;2022-08-07T22:22:33;5.32;;;4.82;;
40637;SDS011;26336;44.696;10.622;2022-08-07T22:25:45;4.93;;;4.53;;
40637;SDS011;26336;44.696;10.622;2022-08-07T22:29:05;4.60;;;4.20;;
40637;SDS011;26336;44.696;10.622;2022-08-07T22:32:31;4.85;;;4.45;;
40637;SDS011;26336;44.696;10.622;2022-08-07T22:35:49;5.95;;;5.45;;
40637;SDS011;26336;44.696;10.622;2022-08-07T22:39:02;5.28;;;4.78;;
40637;SDS011;26336;44.696;10.622;2022-08-07T22:42:18;5.55;;;5.03;;
40637;SDS011;26336;44.696;10.622;2022-08-07T22:45:40;6.00;;;5.35;;
40637;SDS011;26336;44.696;10.622;2022-08-07T23:15:38;8.15;;;7.35;;
40637;SDS011;26336;44.696;10.622;2022-08-07T23:19:04;8.98;;;8.13;;
40637;SDS011;26336;44.696;10.622;2022-08-07T23:36:03;8.25;;;7.55;;
40637;SDS011;26336;44.696;10.622;2022-08-07T23:42:50;9.98;;;8.77;;
40637;SDS011;26336;44.696;10.622;2022-08-07T23:56:25;9.10;;;7.90;;
